sensor_id;sensor_type;location;lat;lon;timestamp;pressure;altitude;pressure_sealevel;temperature;humidity
54808;BME280;40708;50.364;7.550;2023-08-06T00:00:27;99852.88;;;16.49;100.00
54808;BME280;40708;50.364;7.550;2023-08-06T00:02:53;99866.38;;;16.46;100.00
54808;BME280;40708;50.364;7.550;2023-08-06T00:05:18;99899.66;;;16.38;100.00
54808;BME280;40708;50.364;7.550;2023-08-06T00:07:46;99917.84;;;16.27;100.00
54808;BME280;40708;50.364;7.550;2023-08-06T00:10:11;99935.06;;;16.18;100.00
54808;BME280;40708;50.364;7.550;2023-08-06T00:12:36;99957.78;;;16.05;100.00
54808;BME280;40708;50.364;7.550;2023-08-06T00:15:02;99984.69;;;15.99;100.00
54808;BME280;40708;50.364;7.550;2023-08-06T00:17:28;99994.81;;;15.88;100.00
54808;BME280;40708;50.364;7.550;2023-08-06T00:19:53;100017.28;;;15.82;100.00
54808;BME280;40708;50.364;7.550;2023-08-06T00:22:18;100033.63;;;15.72;100.00
54808;BME280;40708;50.364;7.550;2023-08-06T00:24:44;100051.66;;;15.64;100.00
54808;BME280;40708;50.364;7.550;2023-08-06T00:27:09;100065.31;;;15.53;100.00
54808;BME280;40708;50.364;7.550;2023-08-06T00:29:34;100070.81;;;15.47;100.00
54808;BME280;40708;50.364;7.550;2023-08-06T00:32:00;100081.47;;;15.48;100.00
54808;BME280;40708;50.364;7.550;2023-08-06T00:34:25;100090.34;;;15.51;100.00
54808;BME280;40708;50.364;7.550;2023-08-06T00:36:50;100114.34;;;15.52;100.00
54808;BME280;40708;50.364;7.550;2023-08-06T00:39:16;100129.47;;;15.53;100.00
54808;BME280;40708;50.364;7.550;2023-08-06T00:41:41;100143.66;;;15.57;100.00
54808;BME280;40708;50.364;7.550;2023-08-06T00:44:06;100155.13;;;15.60;100.00
54808;BME280;40708;50.364;7.550;2023-08-06T00:46:33;100168.50;;;15.62;100.00
54808;BME280;40708;50.364;7.550;2023-08-06T00:48:59;100176.47;;;15.63;100.00
54808;BME280;40708;50.364;7.550;2023-08-06T00:51:25;100183.53;;;15.66;100.00
54808;BME280;40708;50.364;7.550;2023-08-06T00:53:52;100185.22;;;15.70;100.00
54808;BME280;40708;50.364;7.550;2023-08-06T00:56:18;100193.19;;;15.73;100.00
54808;BME280;40708;50.364;7.550;2023-08-06T00:58:45;100181.53;;;15.75;100.00
54808;BME280;40708;50.364;7.550;2023-08-06T01:01:10;100162.66;;;15.80;100.00
54808;BME280;40708;50.364;7.550;2023-08-06T01:03:36;100156.34;;;15.84;100.00
54808;BME280;40708;50.364;7.550;2023-08-06T01:06:01;100146.41;;;15.87;100.00
54808;BME280;40708;50.364;7.550;2023-08-06T01:11:26;100096.25;;;15.97;100.00
54808;BME280;40708;50.364;7.550;2023-08-06T01:14:07;100057.69;;;16.04;100.00
54808;BME280;40708;50.364;7.550;2023-08-06T01:16:35;100038.88;;;16.07;100.00
54808;BME280;40708;50.364;7.550;2023-08-06T01:19:00;100011.94;;;16.13;100.00
54808;BME280;40708;50.364;7.550;2023-08-06T01:21:26;99988.69;;;16.15;100.00
54808;BME280;40708;50.364;7.550;2023-08-06T01:23:51;99970.78;;;16.17;100.00
54808;BME280;40708;50.364;7.550;2023-08-06T01:29:07;99944.13;;;16.14;100.00
54808;BME280;40708;50.364;7.550;2023-08-06T01:31:38;99946.00;;;16.11;100.00
54808;BME280;40708;50.364;7.550;2023-08-06T01:34:21;99945.06;;;16.12;100.00
54808;BME280;40708;50.364;7.550;2023-08-06T01:36:47;99926.31;;;16.13;100.00
54808;BME280;40708;50.364;7.550;2023-08-06T01:39:13;99931.69;;;16.12;100.00
54808;BME280;40708;50.364;7.550;2023-08-06T01:41:38;99925.50;;;16.09;100.00
54808;BME280;40708;50.364;7.550;2023-08-06T01:44:04;99923.88;;;16.05;100.00
54808;BME280;40708;50.364;7.550;2023-08-06T01:46:29;99922.19;;;16.01;100.00
54808;BME280;40708;50.364;7.550;2023-08-06T01:48:54;99928.59;;;15.96;100.00
54808;BME280;40708;50.364;7.550;2023-08-06T01:51:20;99943.00;;;15.92;100.00
54808;BME280;40708;50.364;7.550;2023-08-06T01:53:45;99960.19;;;15.83;100.00
54808;BME280;40708;50.364;7.550;2023-08-06T01:56:10;99974.63;;;15.78;100.00
54808;BME280;40708;50.364;7.550;2023-08-06T01:58:35;99974.78;;;15.72;100.00
54808;BME280;40708;50.364;7.550;2023-08-06T02:01:01;100003.38;;;15.70;100.00
54808;BME280;40708;50.364;7.550;2023-08-06T02:03:27;99999.88;;;15.66;100.00
54808;BME280;40708;50.364;7.550;2023-08-06T02:05:52;100010.75;;;15.60;100.00
54808;BME280;40708;50.364;7.550;2023-08-06T02:08:17;100020.69;;;15.55;100.00
54808;BME280;40708;50.364;7.550;2023-08-06T02:10:43;100044.81;;;15.54;100.00
54808;BME280;40708;50.364;7.550;2023-08-06T02:13:09;100063.53;;;15.52;100.00
54808;BME280;40708;50.364;7.550;2023-08-06T02:15:34;100084.91;;;15.54;100.00
54808;BME280;40708;50.364;7.550;2023-08-06T02:18:00;100095.59;;;15.54;100.00
54808;BME280;40708;50.364;7.550;2023-08-06T02:20:25;100110.72;;;15.55;100.00
54808;BME280;40708;50.364;7.550;2023-08-06T02:22:50;100116.03;;;15.56;100.00
54808;BME280;40708;50.364;7.550;2023-08-06T02:25:15;100124.94;;;15.57;100.00
54808;BME280;40708;50.364;7.550;2023-08-06T02:27:41;100123.19;;;15.56;100.00
54808;BME280;40708;50.364;7.550;2023-08-06T02:30:06;100116.09;;;15.53;100.00
54808;BME280;40708;50.364;7.550;2023-08-06T02:32:32;100126.13;;;15.43;100.00
54808;BME280;40708;50.364;7.550;2023-08-06T02:35:00;100120.03;;;15.37;100.00
54808;BME280;40708;50.364;7.550;2023-08-06T02:37:26;100120.19;;;15.31;100.00
54808;BME280;40708;50.364;7.550;2023-08-06T02:39:51;100131.88;;;15.27;100.00
54808;BME280;40708;50.364;7.550;2023-08-06T02:42:16;100139.97;;;15.22;100.00
54808;BME280;40708;50.364;7.550;2023-08-06T02:44:41;100152.56;;;15.17;100.00
54808;BME280;40708;50.364;7.550;2023-08-06T02:47:07;100166.88;;;15.15;100.00
54808;BME280;40708;50.364;7.550;2023-08-06T02:49:32;100186.47;;;15.15;100.00
54808;BME280;40708;50.364;7.550;2023-08-06T02:51:57;100194.50;;;15.15;100.00
54808;BME280;40708;50.364;7.550;2023-08-06T02:54:22;100206.91;;;15.18;100.00
54808;BME280;40708;50.364;7.550;2023-08-06T02:56:48;100223.66;;;15.26;100.00
54808;BME280;40708;50.364;7.550;2023-08-06T02:59:13;100230.69;;;15.30;100.00
54808;BME280;40708;50.364;7.550;2023-08-06T03:01:39;100231.53;;;15.32;100.00
54808;BME280;40708;50.364;7.550;2023-08-06T03:04:05;100234.97;;;15.37;100.00
54808;BME280;40708;50.364;7.550;2023-08-06T03:06:31;100227.78;;;15.40;100.00
54808;BME280;40708;50.364;7.550;2023-08-06T03:08:56;100214.31;;;15.45;100.00
54808;BME280;40708;50.364;7.550;2023-08-06T03:11:21;100196.47;;;15.47;100.00
54808;BME280;40708;50.364;7.550;2023-08-06T03:13:47;100184.88;;;15.46;100.00
54808;BME280;40708;50.364;7.550;2023-08-06T03:16:13;100196.44;;;15.48;100.00
54808;BME280;40708;50.364;7.550;2023-08-06T03:18:38;100201.78;;;15.48;100.00
54808;BME280;40708;50.364;7.550;2023-08-06T03:21:04;100200.00;;;15.49;100.00
54808;BME280;40708;50.364;7.550;2023-08-06T03:23:29;100202.66;;;15.49;100.00
54808;BME280;40708;50.364;7.550;2023-08-06T03:25:54;100198.22;;;15.48;100.00
54808;BME280;40708;50.364;7.550;2023-08-06T03:28:20;100208.03;;;15.49;100.00
54808;BME280;40708;50.364;7.550;2023-08-06T03:30:45;100199.13;;;15.48;100.00
54808;BME280;40708;50.364;7.550;2023-08-06T03:33:10;100199.13;;;15.48;100.00
54808;BME280;40708;50.364;7.550;2023-08-06T03:35:36;100194.72;;;15.46;100.00
54808;BME280;40708;50.364;7.550;2023-08-06T03:38:01;100194.66;;;15.47;100.00
54808;BME280;40708;50.364;7.550;2023-08-06T03:40:26;100198.16;;;15.51;100.00
54808;BME280;40708;50.364;7.550;2023-08-06T03:42:52;100188.28;;;15.53;100.00
54808;BME280;40708;50.364;7.550;2023-08-06T03:45:17;100187.47;;;15.49;100.00
54808;BME280;40708;50.364;7.550;2023-08-06T03:47:43;100196.38;;;15.52;100.00
54808;BME280;40708;50.364;7.550;2023-08-06T03:50:08;100192.75;;;15.54;100.00
54808;BME280;40708;50.364;7.550;2023-08-06T03:52:33;100199.94;;;15.51;100.00
54808;BME280;40708;50.364;7.550;2023-08-06T03:54:59;100204.34;;;15.53;100.00
54808;BME280;40708;50.364;7.550;2023-08-06T03:57:24;100215.09;;;15.52;100.00
54808;BME280;40708;50.364;7.550;2023-08-06T03:59:49;100217.78;;;15.50;100.00
54808;BME280;40708;50.364;7.550;2023-08-06T04:02:15;100232.88;;;15.53;100.00
54808;BME280;40708;50.364;7.550;2023-08-06T04:04:40;100244.44;;;15.53;100.00
54808;BME280;40708;50.364;7.550;2023-08-06T04:07:05;100248.91;;;15.54;100.00
54808;BME280;40708;50.364;7.550;2023-08-06T04:09:31;100249.91;;;15.48;100.00
54808;BME280;40708;50.364;7.550;2023-08-06T04:11:56;100250.69;;;15.52;100.00
54808;BME280;40708;50.364;7.550;2023-08-06T04:14:23;100259.59;;;15.54;100.00
54808;BME280;40708;50.364;7.550;2023-08-06T04:16:48;100260.44;;;15.55;100.00
54808;BME280;40708;50.364;7.550;2023-08-06T04:19:14;100260.50;;;15.53;100.00
54808;BME280;40708;50.364;7.550;2023-08-06T04:21:39;100264.06;;;15.52;100.00
54808;BME280;40708;50.364;7.550;2023-08-06T04:24:04;100258.81;;;15.49;100.00
54808;BME280;40708;50.364;7.550;2023-08-06T04:26:30;100259.66;;;15.51;100.00
54808;BME280;40708;50.364;7.550;2023-08-06T04:28:55;100267.59;;;15.54;100.00
54808;BME280;40708;50.364;7.550;2023-08-06T04:31:21;100277.38;;;15.55;100.00
54808;BME280;40708;50.364;7.550;2023-08-06T04:33:46;100279.97;;;15.60;100.00
54808;BME280;40708;50.364;7.550;2023-08-06T04:36:12;100283.34;;;15.66;100.00
54808;BME280;40708;50.364;7.550;2023-08-06T04:38:37;100269.09;;;15.66;100.00
54808;BME280;40708;50.364;7.550;2023-08-06T04:41:03;100271.72;;;15.69;100.00
54808;BME280;40708;50.364;7.550;2023-08-06T04:43:29;100247.44;;;15.76;100.00
54808;BME280;40708;50.364;7.550;2023-08-06T04:45:55;100225.91;;;15.84;100.00
54808;BME280;40708;50.364;7.550;2023-08-06T04:48:21;100183.78;;;15.92;100.00
54808;BME280;40708;50.364;7.550;2023-08-06T04:50:48;100146.94;;;16.03;100.00
54808;BME280;40708;50.364;7.550;2023-08-06T04:53:13;100075.50;;;16.05;100.00
54808;BME280;40708;50.364;7.550;2023-08-06T04:55:39;100026.97;;;16.17;100.00
54808;BME280;40708;50.364;7.550;2023-08-06T04:58:04;99984.81;;;16.25;100.00
54808;BME280;40708;50.364;7.550;2023-08-06T05:00:30;99948.22;;;16.26;100.00
54808;BME280;40708;50.364;7.550;2023-08-06T05:02:55;99928.91;;;16.15;100.00
54808;BME280;40708;50.364;7.550;2023-08-06T05:05:21;99921.59;;;16.21;100.00
54808;BME280;40708;50.364;7.550;2023-08-06T05:07:48;99900.03;;;16.26;100.00
54808;BME280;40708;50.364;7.550;2023-08-06T05:10:15;99892.16;;;16.21;100.00
54808;BME280;40708;50.364;7.550;2023-08-06T05:12:40;99884.13;;;16.21;100.00
54808;BME280;40708;50.364;7.550;2023-08-06T05:15:06;99879.66;;;16.22;100.00
54808;BME280;40708;50.364;7.550;2023-08-06T05:17:32;99881.28;;;16.26;100.00
54808;BME280;40708;50.364;7.550;2023-08-06T05:19:57;99882.00;;;16.32;100.00
54808;BME280;40708;50.364;7.550;2023-08-06T05:22:22;99874.84;;;16.33;100.00
54808;BME280;40708;50.364;7.550;2023-08-06T05:24:48;99869.94;;;16.47;100.00
54808;BME280;40708;50.364;7.550;2023-08-06T05:27:13;99852.03;;;16.47;100.00
54808;BME280;40708;50.364;7.550;2023-08-06T05:29:38;99850.00;;;16.55;100.00
54808;BME280;40708;50.364;7.550;2023-08-06T05:32:04;99828.59;;;16.55;100.00
54808;BME280;40708;50.364;7.550;2023-08-06T05:34:29;99831.25;;;16.55;100.00
54808;BME280;40708;50.364;7.550;2023-08-06T05:36:54;99827.94;;;16.47;100.00
54808;BME280;40708;50.364;7.550;2023-08-06T05:39:20;99837.72;;;16.48;100.00
54808;BME280;40708;50.364;7.550;2023-08-06T05:41:45;99837.50;;;16.56;100.00
54808;BME280;40708;50.364;7.550;2023-08-06T05:44:10;99842.75;;;16.59;100.00
54808;BME280;40708;50.364;7.550;2023-08-06T05:46:36;99847.09;;;16.63;100.00
54808;BME280;40708;50.364;7.550;2023-08-06T05:49:01;99856.59;;;16.72;100.00
54808;BME280;40708;50.364;7.550;2023-08-06T05:51:27;99853.72;;;16.78;100.00
54808;BME280;40708;50.364;7.550;2023-08-06T05:53:52;99851.72;;;16.84;100.00
54808;BME280;40708;50.364;7.550;2023-08-06T05:56:18;99854.91;;;16.95;100.00
54808;BME280;40708;50.364;7.550;2023-08-06T05:58:43;99847.41;;;17.05;100.00
54808;BME280;40708;50.364;7.550;2023-08-06T06:01:08;99812.47;;;17.08;100.00
54808;BME280;40708;50.364;7.550;2023-08-06T06:03:34;99793.91;;;17.02;100.00
54808;BME280;40708;50.364;7.550;2023-08-06T06:06:01;99808.09;;;17.05;100.00
54808;BME280;40708;50.364;7.550;2023-08-06T06:08:27;99838.34;;;17.09;100.00
54808;BME280;40708;50.364;7.550;2023-08-06T06:10:52;99875.03;;;17.32;100.00
54808;BME280;40708;50.364;7.550;2023-08-06T06:13:17;99861.72;;;17.28;100.00
54808;BME280;40708;50.364;7.550;2023-08-06T06:15:42;99856.06;;;17.13;100.00
54808;BME280;40708;50.364;7.550;2023-08-06T06:18:08;99856.91;;;16.89;100.00
54808;BME280;40708;50.364;7.550;2023-08-06T06:20:33;99895.03;;;16.97;100.00
54808;BME280;40708;50.364;7.550;2023-08-06T06:22:59;99920.44;;;16.85;100.00
54808;BME280;40708;50.364;7.550;2023-08-06T06:25:24;99932.47;;;16.72;100.00
54808;BME280;40708;50.364;7.550;2023-08-06T06:27:49;99965.66;;;16.68;100.00
54808;BME280;40708;50.364;7.550;2023-08-06T06:30:15;99986.13;;;16.71;100.00
54808;BME280;40708;50.364;7.550;2023-08-06T06:32:40;100022.59;;;16.75;100.00
54808;BME280;40708;50.364;7.550;2023-08-06T06:35:06;100041.88;;;16.86;100.00
54808;BME280;40708;50.364;7.550;2023-08-06T06:37:32;100031.94;;;16.89;100.00
54808;BME280;40708;50.364;7.550;2023-08-06T06:39:57;100017.91;;;16.81;100.00
54808;BME280;40708;50.364;7.550;2023-08-06T06:42:22;100009.69;;;16.87;100.00
54808;BME280;40708;50.364;7.550;2023-08-06T06:44:48;100008.91;;;16.84;100.00
54808;BME280;40708;50.364;7.550;2023-08-06T06:47:13;99997.47;;;16.79;100.00
54808;BME280;40708;50.364;7.550;2023-08-06T06:49:38;99985.88;;;16.78;100.00
54808;BME280;40708;50.364;7.550;2023-08-06T06:52:04;99974.91;;;16.86;100.00
54808;BME280;40708;50.364;7.550;2023-08-06T06:54:30;99962.84;;;16.99;100.00
54808;BME280;40708;50.364;7.550;2023-08-06T06:56:55;99925.59;;;16.91;100.00
54808;BME280;40708;50.364;7.550;2023-08-06T06:59:20;99900.03;;;17.07;100.00
54808;BME280;40708;50.364;7.550;2023-08-06T07:01:46;99881.13;;;17.12;100.00
54808;BME280;40708;50.364;7.550;2023-08-06T07:04:11;99861.16;;;16.96;100.00
54808;BME280;40708;50.364;7.550;2023-08-06T07:06:36;99876.63;;;17.12;100.00
54808;BME280;40708;50.364;7.550;2023-08-06T07:09:02;99835.28;;;17.19;100.00
54808;BME280;40708;50.364;7.550;2023-08-06T07:11:27;99819.31;;;17.16;100.00
54808;BME280;40708;50.364;7.550;2023-08-06T07:13:58;99796.59;;;17.26;100.00
54808;BME280;40708;50.364;7.550;2023-08-06T07:16:24;99794.91;;;17.24;100.00
54808;BME280;40708;50.364;7.550;2023-08-06T07:18:51;99801.75;;;17.08;100.00
54808;BME280;40708;50.364;7.550;2023-08-06T07:21:18;99804.13;;;17.15;100.00
54808;BME280;40708;50.364;7.550;2023-08-06T07:23:43;99805.91;;;17.40;100.00
54808;BME280;40708;50.364;7.550;2023-08-06T07:26:08;99818.81;;;17.55;100.00
54808;BME280;40708;50.364;7.550;2023-08-06T07:28:34;99802.38;;;17.85;100.00
54808;BME280;40708;50.364;7.550;2023-08-06T07:30:59;99769.38;;;18.05;100.00
54808;BME280;40708;50.364;7.550;2023-08-06T07:33:25;99718.16;;;17.90;100.00
54808;BME280;40708;50.364;7.550;2023-08-06T07:35:50;99714.66;;;18.09;100.00
54808;BME280;40708;50.364;7.550;2023-08-06T07:38:15;99708.13;;;18.36;100.00
54808;BME280;40708;50.364;7.550;2023-08-06T07:40:42;99687.06;;;18.68;100.00
54808;BME280;40708;50.364;7.550;2023-08-06T07:43:07;99630.84;;;18.63;100.00
54808;BME280;40708;50.364;7.550;2023-08-06T07:45:36;99620.06;;;18.83;100.00
54808;BME280;40708;50.364;7.550;2023-08-06T07:48:03;99595.91;;;19.02;100.00
54808;BME280;40708;50.364;7.550;2023-08-06T07:50:28;99573.06;;;18.92;100.00
54808;BME280;40708;50.364;7.550;2023-08-06T07:52:54;99542.84;;;18.68;100.00
54808;BME280;40708;50.364;7.550;2023-08-06T07:55:19;99549.31;;;19.01;100.00
54808;BME280;40708;50.364;7.550;2023-08-06T07:57:44;99537.69;;;19.01;100.00
54808;BME280;40708;50.364;7.550;2023-08-06T08:00:10;99520.59;;;19.21;100.00
54808;BME280;40708;50.364;7.550;2023-08-06T08:02:35;99518.56;;;19.26;100.00
54808;BME280;40708;50.364;7.550;2023-08-06T08:05:00;99509.50;;;19.10;100.00
54808;BME280;40708;50.364;7.550;2023-08-06T08:07:26;99499.50;;;19.30;100.00
54808;BME280;40708;50.364;7.550;2023-08-06T08:09:54;99498.13;;;19.22;100.00
54808;BME280;40708;50.364;7.550;2023-08-06T08:12:19;99492.53;;;18.90;100.00
54808;BME280;40708;50.364;7.550;2023-08-06T08:14:44;99507.56;;;18.57;100.00
54808;BME280;40708;50.364;7.550;2023-08-06T08:17:11;99529.88;;;18.39;100.00
54808;BME280;40708;50.364;7.550;2023-08-06T08:19:37;99551.50;;;18.36;100.00
54808;BME280;40708;50.364;7.550;2023-08-06T08:22:02;99553.03;;;18.21;100.00
54808;BME280;40708;50.364;7.550;2023-08-06T08:24:28;99547.00;;;18.75;100.00
54808;BME280;40708;50.364;7.550;2023-08-06T08:26:55;99507.47;;;19.15;100.00
54808;BME280;40708;50.364;7.550;2023-08-06T08:29:21;99456.91;;;19.57;100.00
54808;BME280;40708;50.364;7.550;2023-08-06T08:31:47;99447.47;;;20.00;100.00
54808;BME280;40708;50.364;7.550;2023-08-06T08:34:15;99428.78;;;19.97;100.00
54808;BME280;40708;50.364;7.550;2023-08-06T08:36:40;99401.13;;;20.10;100.00
54808;BME280;40708;50.364;7.550;2023-08-06T08:39:05;99378.88;;;20.23;100.00
54808;BME280;40708;50.364;7.550;2023-08-06T08:41:31;99368.22;;;20.52;100.00
54808;BME280;40708;50.364;7.550;2023-08-06T08:43:58;99333.56;;;21.51;100.00
54808;BME280;40708;50.364;7.550;2023-08-06T08:46:27;99300.09;;;22.24;100.00
54808;BME280;40708;50.364;7.550;2023-08-06T08:48:54;99274.59;;;23.08;100.00
54808;BME280;40708;50.364;7.550;2023-08-06T08:51:21;99252.75;;;23.24;100.00
54808;BME280;40708;50.364;7.550;2023-08-06T08:53:47;99245.81;;;23.20;100.00
54808;BME280;40708;50.364;7.550;2023-08-06T08:56:13;99239.44;;;23.08;100.00
54808;BME280;40708;50.364;7.550;2023-08-06T08:58:39;99229.66;;;23.82;100.00
54808;BME280;40708;50.364;7.550;2023-08-06T09:01:06;99235.13;;;23.69;100.00
54808;BME280;40708;50.364;7.550;2023-08-06T09:03:32;99226.31;;;23.78;100.00
54808;BME280;40708;50.364;7.550;2023-08-06T09:05:59;99227.56;;;23.61;100.00
54808;BME280;40708;50.364;7.550;2023-08-06T09:08:31;99223.53;;;24.03;100.00
54808;BME280;40708;50.364;7.550;2023-08-06T09:11:01;99225.50;;;24.01;100.00
54808;BME280;40708;50.364;7.550;2023-08-06T09:13:26;99229.09;;;23.53;100.00
54808;BME280;40708;50.364;7.550;2023-08-06T09:15:52;99232.38;;;22.93;100.00
54808;BME280;40708;50.364;7.550;2023-08-06T09:18:25;99238.28;;;22.73;100.00
54808;BME280;40708;50.364;7.550;2023-08-06T09:20:52;99248.91;;;22.09;100.00
54808;BME280;40708;50.364;7.550;2023-08-06T09:23:17;99294.84;;;21.52;100.00
54808;BME280;40708;50.364;7.550;2023-08-06T09:25:42;99437.06;;;20.27;100.00
54808;BME280;40708;50.364;7.550;2023-08-06T09:28:08;99563.53;;;19.22;100.00
54808;BME280;40708;50.364;7.550;2023-08-06T09:30:36;99649.31;;;18.71;100.00
54808;BME280;40708;50.364;7.550;2023-08-06T09:33:02;99649.31;;;18.71;100.00
54808;BME280;40708;50.364;7.550;2023-08-06T09:35:31;99728.31;;;18.03;100.00
54808;BME280;40708;50.364;7.550;2023-08-06T09:38:09;99770.69;;;18.17;100.00
54808;BME280;40708;50.364;7.550;2023-08-06T09:40:36;99711.28;;;18.04;100.00
54808;BME280;40708;50.364;7.550;2023-08-06T09:43:01;99697.91;;;18.03;100.00
54808;BME280;40708;50.364;7.550;2023-08-06T09:45:31;99721.63;;;18.13;100.00
54808;BME280;40708;50.364;7.550;2023-08-06T09:47:58;99726.16;;;18.33;100.00
54808;BME280;40708;50.364;7.550;2023-08-06T09:50:29;99698.81;;;18.65;100.00
54808;BME280;40708;50.364;7.550;2023-08-06T09:52:57;99687.44;;;18.79;100.00
54808;BME280;40708;50.364;7.550;2023-08-06T09:55:23;99653.53;;;18.76;100.00
54808;BME280;40708;50.364;7.550;2023-08-06T09:57:50;99650.56;;;18.82;100.00
54808;BME280;40708;50.364;7.550;2023-08-06T10:00:16;99640.97;;;18.36;100.00
54808;BME280;40708;50.364;7.550;2023-08-06T10:02:42;99692.19;;;17.90;100.00
54808;BME280;40708;50.364;7.550;2023-08-06T10:05:09;99846.59;;;17.03;100.00
54808;BME280;40708;50.364;7.550;2023-08-06T10:07:34;100007.00;;;16.59;100.00
54808;BME280;40708;50.364;7.550;2023-08-06T10:10:00;100122.53;;;16.46;100.00
54808;BME280;40708;50.364;7.550;2023-08-06T10:12:28;100218.25;;;16.38;100.00
54808;BME280;40708;50.364;7.550;2023-08-06T10:14:57;100289.44;;;16.45;100.00
54808;BME280;40708;50.364;7.550;2023-08-06T10:17:23;100364.63;;;16.37;100.00
54808;BME280;40708;50.364;7.550;2023-08-06T10:19:50;100411.22;;;16.30;100.00
54808;BME280;40708;50.364;7.550;2023-08-06T10:22:17;100461.06;;;16.34;100.00
54808;BME280;40708;50.364;7.550;2023-08-06T10:27:19;100516.66;;;16.23;100.00
54808;BME280;40708;50.364;7.550;2023-08-06T10:29:45;100570.00;;;16.32;100.00
54808;BME280;40708;50.364;7.550;2023-08-06T10:32:10;100556.44;;;16.40;100.00
54808;BME280;40708;50.364;7.550;2023-08-06T10:34:57;100538.47;;;16.45;100.00
54808;BME280;40708;50.364;7.550;2023-08-06T10:37:44;100501.94;;;16.42;100.00
54808;BME280;40708;50.364;7.550;2023-08-06T10:40:10;100450.09;;;16.46;100.00
54808;BME280;40708;50.364;7.550;2023-08-06T10:42:35;100329.66;;;16.43;100.00
54808;BME280;40708;50.364;7.550;2023-08-06T10:45:11;100265.72;;;16.31;100.00
54808;BME280;40708;50.364;7.550;2023-08-06T10:47:38;100236.38;;;16.27;100.00
54808;BME280;40708;50.364;7.550;2023-08-06T10:50:06;100235.78;;;16.16;100.00
54808;BME280;40708;50.364;7.550;2023-08-06T10:52:31;100242.03;;;16.16;100.00
54808;BME280;40708;50.364;7.550;2023-08-06T10:54:57;100250.13;;;16.13;100.00
54808;BME280;40708;50.364;7.550;2023-08-06T10:57:22;100228.72;;;16.13;100.00
54808;BME280;40708;50.364;7.550;2023-08-06T10:59:47;100139.72;;;16.05;100.00
54808;BME280;40708;50.364;7.550;2023-08-06T11:02:12;100052.25;;;16.07;100.00
54808;BME280;40708;50.364;7.550;2023-08-06T11:04:38;100000.72;;;16.00;100.00
54808;BME280;40708;50.364;7.550;2023-08-06T11:07:06;99996.88;;;16.09;100.00
54808;BME280;40708;50.364;7.550;2023-08-06T11:09:32;99990.69;;;16.07;100.00
54808;BME280;40708;50.364;7.550;2023-08-06T11:11:57;99982.44;;;16.15;100.00
54808;BME280;40708;50.364;7.550;2023-08-06T11:14:22;99925.59;;;16.06;100.00
54808;BME280;40708;50.364;7.550;2023-08-06T11:16:48;99920.25;;;16.06;100.00
54808;BME280;40708;50.364;7.550;2023-08-06T11:19:13;99922.97;;;16.05;100.00
54808;BME280;40708;50.364;7.550;2023-08-06T11:21:41;99918.44;;;16.08;100.00
54808;BME280;40708;50.364;7.550;2023-08-06T11:24:10;99898.00;;;16.06;100.00
54808;BME280;40708;50.364;7.550;2023-08-06T11:26:36;99883.56;;;16.10;100.00
54808;BME280;40708;50.364;7.550;2023-08-06T11:29:02;99888.03;;;16.09;100.00
54808;BME280;40708;50.364;7.550;2023-08-06T11:31:28;99828.44;;;16.04;100.00
54808;BME280;40708;50.364;7.550;2023-08-06T11:33:54;99872.88;;;16.10;100.00
54808;BME280;40708;50.364;7.550;2023-08-06T11:36:30;99883.63;;;16.08;100.00
54808;BME280;40708;50.364;7.550;2023-08-06T11:38:56;99848.06;;;16.05;100.00
54808;BME280;40708;50.364;7.550;2023-08-06T11:41:21;99842.97;;;15.97;100.00
54808;BME280;40708;50.364;7.550;2023-08-06T11:43:47;99859.91;;;15.96;100.00
54808;BME280;40708;50.364;7.550;2023-08-06T11:46:12;99868.78;;;15.98;100.00
54808;BME280;40708;50.364;7.550;2023-08-06T11:48:54;99892.75;;;16.01;100.00
54808;BME280;40708;50.364;7.550;2023-08-06T11:51:27;99886.53;;;16.01;100.00
54808;BME280;40708;50.364;7.550;2023-08-06T11:53:56;99875.16;;;15.94;100.00
54808;BME280;40708;50.364;7.550;2023-08-06T11:56:22;99864.38;;;15.96;100.00
54808;BME280;40708;50.364;7.550;2023-08-06T11:58:48;99878.63;;;15.98;100.00
54808;BME280;40708;50.364;7.550;2023-08-06T12:01:14;99909.88;;;15.96;100.00
54808;BME280;40708;50.364;7.550;2023-08-06T12:03:40;99930.69;;;15.86;100.00
54808;BME280;40708;50.364;7.550;2023-08-06T12:06:05;99921.84;;;15.84;100.00
54808;BME280;40708;50.364;7.550;2023-08-06T12:08:32;99965.47;;;15.85;100.00
54808;BME280;40708;50.364;7.550;2023-08-06T12:10:58;99965.47;;;15.86;100.00
54808;BME280;40708;50.364;7.550;2023-08-06T12:13:23;99974.97;;;15.96;100.00
54808;BME280;40708;50.364;7.550;2023-08-06T12:15:48;99971.16;;;16.05;100.00
54808;BME280;40708;50.364;7.550;2023-08-06T12:18:14;99970.13;;;16.09;100.00
54808;BME280;40708;50.364;7.550;2023-08-06T12:20:39;99921.03;;;16.10;100.00
54808;BME280;40708;50.364;7.550;2023-08-06T12:23:04;99917.22;;;16.19;100.00
54808;BME280;40708;50.364;7.550;2023-08-06T12:25:30;99912.16;;;16.37;100.00
54808;BME280;40708;50.364;7.550;2023-08-06T12:27:55;99893.22;;;16.43;100.00
54808;BME280;40708;50.364;7.550;2023-08-06T12:30:20;99878.00;;;16.45;100.00
54808;BME280;40708;50.364;7.550;2023-08-06T12:32:46;99869.16;;;16.42;100.00
54808;BME280;40708;50.364;7.550;2023-08-06T12:35:11;99901.53;;;16.34;100.00
54808;BME280;40708;50.364;7.550;2023-08-06T12:37:37;99948.34;;;16.21;100.00
54808;BME280;40708;50.364;7.550;2023-08-06T12:40:04;100021.34;;;15.95;100.00
54808;BME280;40708;50.364;7.550;2023-08-06T12:42:29;100073.28;;;15.88;100.00
54808;BME280;40708;50.364;7.550;2023-08-06T12:44:55;100135.78;;;15.86;100.00
54808;BME280;40708;50.364;7.550;2023-08-06T12:47:20;100189.50;;;15.77;100.00